sensor_id;sensor_type;location;lat;lon;timestamp;P1;durP1;ratioP1;P2;durP2;ratioP2
28353;SDS011;15603;50.878;8.036;2023-07-24T00:01:55;3.83;;;1.33;;
28353;SDS011;15603;50.878;8.036;2023-07-24T00:04:22;3.72;;;1.20;;
28353;SDS011;15603;50.878;8.036;2023-07-24T00:06:49;1.55;;;1.23;;
28353;SDS011;15603;50.878;8.036;2023-07-24T00:09:16;2.55;;;1.38;;
28353;SDS011;15603;50.878;8.036;2023-07-24T00:11:43;2.22;;;1.33;;
28353;SDS011;15603;50.878;8.036;2023-07-24T00:14:10;2.88;;;1.10;;
28353;SDS011;15603;50.878;8.036;2023-07-24T00:16:37;2.67;;;1.20;;
28353;SDS011;15603;50.878;8.036;2023-07-24T00:19:04;3.15;;;1.52;;
28353;SDS011;15603;50.878;8.036;2023-07-24T00:21:32;2.75;;;1.40;;
28353;SDS011;15603;50.878;8.036;2023-07-24T00:23:59;1.45;;;1.27;;
28353;SDS011;15603;50.878;8.036;2023-07-24T00:26:26;2.17;;;1.40;;
28353;SDS011;15603;50.878;8.036;2023-07-24T00:28:53;4.95;;;1.65;;
28353;SDS011;15603;50.878;8.036;2023-07-24T00:31:20;1.50;;;1.23;;
28353;SDS011;15603;50.878;8.036;2023-07-24T00:33:47;2.15;;;1.17;;
28353;SDS011;15603;50.878;8.036;2023-07-24T00:36:14;4.70;;;1.20;;
28353;SDS011;15603;50.878;8.036;2023-07-24T00:38:41;2.28;;;0.90;;
28353;SDS011;15603;50.878;8.036;2023-07-24T00:41:09;2.80;;;1.30;;
28353;SDS011;15603;50.878;8.036;2023-07-24T00:43:36;3.47;;;1.10;;
28353;SDS011;15603;50.878;8.036;2023-07-24T00:46:03;1.75;;;1.17;;
28353;SDS011;15603;50.878;8.036;2023-07-24T00:48:30;2.53;;;1.20;;
28353;SDS011;15603;50.878;8.036;2023-07-24T00:50:57;1.90;;;1.30;;
28353;SDS011;15603;50.878;8.036;2023-07-24T00:53:24;1.75;;;1.20;;
28353;SDS011;15603;50.878;8.036;2023-07-24T00:55:52;2.65;;;1.40;;
28353;SDS011;15603;50.878;8.036;2023-07-24T00:58:20;3.80;;;1.60;;
28353;SDS011;15603;50.878;8.036;2023-07-24T01:00:48;1.35;;;1.10;;
28353;SDS011;15603;50.878;8.036;2023-07-24T01:03:17;1.35;;;0.95;;
28353;SDS011;15603;50.878;8.036;2023-07-24T01:05:44;1.95;;;1.15;;
28353;SDS011;15603;50.878;8.036;2023-07-24T01:08:11;1.98;;;1.40;;
28353;SDS011;15603;50.878;8.036;2023-07-24T01:10:38;2.33;;;1.15;;
28353;SDS011;15603;50.878;8.036;2023-07-24T01:13:08;3.92;;;1.67;;
28353;SDS011;15603;50.878;8.036;2023-07-24T01:15:45;2.30;;;1.55;;
28353;SDS011;15603;50.878;8.036;2023-07-24T01:18:24;4.93;;;1.38;;
28353;SDS011;15603;50.878;8.036;2023-07-24T01:20:53;1.65;;;1.38;;
28353;SDS011;15603;50.878;8.036;2023-07-24T01:26:09;1.95;;;1.40;;
28353;SDS011;15603;50.878;8.036;2023-07-24T01:28:36;3.08;;;1.50;;
28353;SDS011;15603;50.878;8.036;2023-07-24T01:31:03;4.82;;;1.38;;
28353;SDS011;15603;50.878;8.036;2023-07-24T01:33:31;2.85;;;1.40;;
28353;SDS011;15603;50.878;8.036;2023-07-24T01:36:00;2.13;;;1.17;;
28353;SDS011;15603;50.878;8.036;2023-07-24T01:38:31;1.42;;;1.08;;
28353;SDS011;15603;50.878;8.036;2023-07-24T01:41:01;1.67;;;1.17;;
28353;SDS011;15603;50.878;8.036;2023-07-24T01:43:29;5.43;;;1.33;;
28353;SDS011;15603;50.878;8.036;2023-07-24T01:45:57;2.33;;;1.45;;
28353;SDS011;15603;50.878;8.036;2023-07-24T01:48:25;1.58;;;1.17;;
28353;SDS011;15603;50.878;8.036;2023-07-24T01:50:53;4.70;;;1.35;;
28353;SDS011;15603;50.878;8.036;2023-07-24T01:53:21;2.40;;;1.42;;
28353;SDS011;15603;50.878;8.036;2023-07-24T01:55:48;4.68;;;1.38;;
28353;SDS011;15603;50.878;8.036;2023-07-24T01:58:15;2.33;;;1.50;;
28353;SDS011;15603;50.878;8.036;2023-07-24T02:00:43;6.90;;;1.63;;
28353;SDS011;15603;50.878;8.036;2023-07-24T02:03:10;2.35;;;1.17;;
28353;SDS011;15603;50.878;8.036;2023-07-24T02:05:37;2.53;;;1.50;;
28353;SDS011;15603;50.878;8.036;2023-07-24T02:08:04;3.10;;;1.60;;
28353;SDS011;15603;50.878;8.036;2023-07-24T02:10:31;1.67;;;1.40;;
28353;SDS011;15603;50.878;8.036;2023-07-24T02:12:58;2.67;;;1.45;;
28353;SDS011;15603;50.878;8.036;2023-07-24T02:15:25;5.28;;;1.40;;
28353;SDS011;15603;50.878;8.036;2023-07-24T02:17:52;2.10;;;1.42;;
28353;SDS011;15603;50.878;8.036;2023-07-24T02:20:20;3.10;;;1.13;;
28353;SDS011;15603;50.878;8.036;2023-07-24T02:22:48;2.53;;;1.48;;
28353;SDS011;15603;50.878;8.036;2023-07-24T02:25:16;1.88;;;1.50;;
28353;SDS011;15603;50.878;8.036;2023-07-24T02:27:43;1.33;;;1.10;;
28353;SDS011;15603;50.878;8.036;2023-07-24T02:30:10;2.00;;;1.20;;
28353;SDS011;15603;50.878;8.036;2023-07-24T02:32:38;1.95;;;1.35;;
28353;SDS011;15603;50.878;8.036;2023-07-24T02:35:05;2.67;;;1.50;;
28353;SDS011;15603;50.878;8.036;2023-07-24T02:37:32;1.95;;;1.20;;
28353;SDS011;15603;50.878;8.036;2023-07-24T02:40:00;2.00;;;1.45;;
28353;SDS011;15603;50.878;8.036;2023-07-24T02:42:27;2.85;;;1.23;;
28353;SDS011;15603;50.878;8.036;2023-07-24T02:44:54;4.38;;;1.17;;
28353;SDS011;15603;50.878;8.036;2023-07-24T02:47:21;2.15;;;1.33;;
28353;SDS011;15603;50.878;8.036;2023-07-24T02:49:48;1.90;;;1.13;;
28353;SDS011;15603;50.878;8.036;2023-07-24T02:52:15;2.13;;;1.02;;
28353;SDS011;15603;50.878;8.036;2023-07-24T02:54:43;1.85;;;1.27;;
28353;SDS011;15603;50.878;8.036;2023-07-24T02:57:10;1.55;;;1.23;;
28353;SDS011;15603;50.878;8.036;2023-07-24T02:59:37;1.75;;;1.25;;
28353;SDS011;15603;50.878;8.036;2023-07-24T03:02:04;2.45;;;1.30;;
28353;SDS011;15603;50.878;8.036;2023-07-24T03:04:31;2.15;;;1.20;;
28353;SDS011;15603;50.878;8.036;2023-07-24T03:06:59;2.22;;;1.20;;
28353;SDS011;15603;50.878;8.036;2023-07-24T03:09:26;5.50;;;1.30;;
28353;SDS011;15603;50.878;8.036;2023-07-24T03:11:54;1.35;;;1.10;;
28353;SDS011;15603;50.878;8.036;2023-07-24T03:14:21;1.85;;;1.30;;
28353;SDS011;15603;50.878;8.036;2023-07-24T03:16:48;2.30;;;1.17;;
28353;SDS011;15603;50.878;8.036;2023-07-24T03:19:15;3.83;;;1.45;;
28353;SDS011;15603;50.878;8.036;2023-07-24T03:21:44;1.58;;;1.05;;
28353;SDS011;15603;50.878;8.036;2023-07-24T03:24:11;2.20;;;1.40;;
28353;SDS011;15603;50.878;8.036;2023-07-24T03:26:38;2.63;;;1.30;;
28353;SDS011;15603;50.878;8.036;2023-07-24T03:29:05;2.08;;;1.25;;
28353;SDS011;15603;50.878;8.036;2023-07-24T03:31:32;2.45;;;1.55;;
28353;SDS011;15603;50.878;8.036;2023-07-24T03:34:00;2.05;;;1.48;;
28353;SDS011;15603;50.878;8.036;2023-07-24T03:36:27;8.10;;;1.85;;
28353;SDS011;15603;50.878;8.036;2023-07-24T03:38:54;1.98;;;1.25;;
28353;SDS011;15603;50.878;8.036;2023-07-24T03:41:21;1.85;;;1.45;;
28353;SDS011;15603;50.878;8.036;2023-07-24T03:43:48;1.83;;;1.13;;
28353;SDS011;15603;50.878;8.036;2023-07-24T03:46:15;2.78;;;1.33;;
28353;SDS011;15603;50.878;8.036;2023-07-24T03:48:42;5.32;;;1.38;;
28353;SDS011;15603;50.878;8.036;2023-07-24T03:51:10;4.13;;;1.85;;
28353;SDS011;15603;50.878;8.036;2023-07-24T03:53:37;2.08;;;1.65;;
28353;SDS011;15603;50.878;8.036;2023-07-24T03:56:04;2.60;;;1.48;;
28353;SDS011;15603;50.878;8.036;2023-07-24T03:58:31;1.75;;;1.10;;
28353;SDS011;15603;50.878;8.036;2023-07-24T04:00:58;2.83;;;1.23;;
28353;SDS011;15603;50.878;8.036;2023-07-24T04:03:25;6.40;;;2.00;;
28353;SDS011;15603;50.878;8.036;2023-07-24T04:05:53;2.78;;;1.45;;
28353;SDS011;15603;50.878;8.036;2023-07-24T04:08:20;6.25;;;1.65;;
28353;SDS011;15603;50.878;8.036;2023-07-24T04:10:47;3.10;;;1.70;;
28353;SDS011;15603;50.878;8.036;2023-07-24T04:13:15;3.05;;;1.40;;
28353;SDS011;15603;50.878;8.036;2023-07-24T04:15:42;2.42;;;1.55;;
28353;SDS011;15603;50.878;8.036;2023-07-24T04:18:11;3.03;;;1.50;;
28353;SDS011;15603;50.878;8.036;2023-07-24T04:20:38;3.38;;;1.50;;
28353;SDS011;15603;50.878;8.036;2023-07-24T04:23:05;1.70;;;1.30;;
28353;SDS011;15603;50.878;8.036;2023-07-24T04:25:32;2.83;;;1.77;;
28353;SDS011;15603;50.878;8.036;2023-07-24T04:27:59;2.13;;;1.83;;
28353;SDS011;15603;50.878;8.036;2023-07-24T04:30:26;5.63;;;1.58;;
28353;SDS011;15603;50.878;8.036;2023-07-24T04:32:53;4.00;;;1.70;;
28353;SDS011;15603;50.878;8.036;2023-07-24T04:35:20;2.10;;;1.27;;
28353;SDS011;15603;50.878;8.036;2023-07-24T04:37:47;2.95;;;1.85;;
28353;SDS011;15603;50.878;8.036;2023-07-24T04:40:14;5.88;;;1.55;;
28353;SDS011;15603;50.878;8.036;2023-07-24T04:42:41;2.08;;;1.30;;
28353;SDS011;15603;50.878;8.036;2023-07-24T04:45:09;5.72;;;1.70;;
28353;SDS011;15603;50.878;8.036;2023-07-24T04:47:36;4.13;;;1.85;;
28353;SDS011;15603;50.878;8.036;2023-07-24T04:50:05;5.68;;;2.25;;
28353;SDS011;15603;50.878;8.036;2023-07-24T04:52:33;4.28;;;1.20;;
28353;SDS011;15603;50.878;8.036;2023-07-24T04:55:00;3.65;;;1.67;;
28353;SDS011;15603;50.878;8.036;2023-07-24T04:57:27;4.43;;;1.65;;
28353;SDS011;15603;50.878;8.036;2023-07-24T04:59:54;4.03;;;2.17;;
28353;SDS011;15603;50.878;8.036;2023-07-24T05:02:21;5.38;;;1.90;;
28353;SDS011;15603;50.878;8.036;2023-07-24T05:04:49;6.00;;;1.90;;
28353;SDS011;15603;50.878;8.036;2023-07-24T05:07:16;2.58;;;1.67;;
28353;SDS011;15603;50.878;8.036;2023-07-24T05:09:44;3.72;;;1.83;;
28353;SDS011;15603;50.878;8.036;2023-07-24T05:12:11;2.55;;;1.85;;
28353;SDS011;15603;50.878;8.036;2023-07-24T05:14:38;3.92;;;1.55;;
28353;SDS011;15603;50.878;8.036;2023-07-24T05:17:05;2.40;;;1.77;;
28353;SDS011;15603;50.878;8.036;2023-07-24T05:19:32;2.13;;;1.48;;
28353;SDS011;15603;50.878;8.036;2023-07-24T05:21:59;2.22;;;1.45;;
28353;SDS011;15603;50.878;8.036;2023-07-24T05:24:26;3.60;;;1.85;;
28353;SDS011;15603;50.878;8.036;2023-07-24T05:26:53;3.03;;;2.13;;
28353;SDS011;15603;50.878;8.036;2023-07-24T05:29:20;6.60;;;2.15;;
28353;SDS011;15603;50.878;8.036;2023-07-24T05:31:48;4.95;;;2.17;;
28353;SDS011;15603;50.878;8.036;2023-07-24T05:34:15;3.67;;;2.30;;
28353;SDS011;15603;50.878;8.036;2023-07-24T05:36:42;5.10;;;2.28;;
28353;SDS011;15603;50.878;8.036;2023-07-24T05:39:10;10.55;;;2.30;;
28353;SDS011;15603;50.878;8.036;2023-07-24T05:41:37;3.85;;;1.98;;
28353;SDS011;15603;50.878;8.036;2023-07-24T05:44:06;7.72;;;1.83;;
28353;SDS011;15603;50.878;8.036;2023-07-24T05:46:34;2.60;;;1.70;;
28353;SDS011;15603;50.878;8.036;2023-07-24T05:49:01;3.38;;;2.13;;
28353;SDS011;15603;50.878;8.036;2023-07-24T05:51:29;3.72;;;1.98;;
28353;SDS011;15603;50.878;8.036;2023-07-24T05:53:56;5.05;;;2.40;;
28353;SDS011;15603;50.878;8.036;2023-07-24T05:56:23;4.85;;;2.40;;
28353;SDS011;15603;50.878;8.036;2023-07-24T05:58:50;4.00;;;2.50;;
28353;SDS011;15603;50.878;8.036;2023-07-24T06:01:17;4.72;;;2.20;;
28353;SDS011;15603;50.878;8.036;2023-07-24T06:03:44;3.70;;;2.22;;
28353;SDS011;15603;50.878;8.036;2023-07-24T06:06:12;5.18;;;2.40;;
28353;SDS011;15603;50.878;8.036;2023-07-24T06:08:39;3.92;;;1.92;;
28353;SDS011;15603;50.878;8.036;2023-07-24T06:11:06;3.80;;;2.22;;
28353;SDS011;15603;50.878;8.036;2023-07-24T06:13:33;7.80;;;2.30;;
28353;SDS011;15603;50.878;8.036;2023-07-24T06:16:00;5.50;;;2.50;;
28353;SDS011;15603;50.878;8.036;2023-07-24T06:18:27;4.30;;;2.30;;
28353;SDS011;15603;50.878;8.036;2023-07-24T06:20:54;3.78;;;2.20;;
28353;SDS011;15603;50.878;8.036;2023-07-24T06:23:21;3.00;;;1.95;;
28353;SDS011;15603;50.878;8.036;2023-07-24T06:25:48;4.45;;;2.70;;
28353;SDS011;15603;50.878;8.036;2023-07-24T06:28:15;4.15;;;2.58;;
28353;SDS011;15603;50.878;8.036;2023-07-24T06:30:42;4.97;;;2.65;;
28353;SDS011;15603;50.878;8.036;2023-07-24T06:33:09;4.88;;;2.08;;
28353;SDS011;15603;50.878;8.036;2023-07-24T06:35:37;6.05;;;2.38;;
28353;SDS011;15603;50.878;8.036;2023-07-24T06:38:04;5.20;;;2.60;;
28353;SDS011;15603;50.878;8.036;2023-07-24T06:40:31;4.43;;;2.55;;
28353;SDS011;15603;50.878;8.036;2023-07-24T06:42:58;4.25;;;2.40;;
28353;SDS011;15603;50.878;8.036;2023-07-24T06:45:25;5.80;;;2.40;;
28353;SDS011;15603;50.878;8.036;2023-07-24T06:47:52;6.50;;;2.80;;
28353;SDS011;15603;50.878;8.036;2023-07-24T06:50:19;6.13;;;2.60;;
28353;SDS011;15603;50.878;8.036;2023-07-24T06:52:47;4.15;;;2.53;;
28353;SDS011;15603;50.878;8.036;2023-07-24T06:55:14;5.45;;;2.65;;
28353;SDS011;15603;50.878;8.036;2023-07-24T06:57:41;5.20;;;2.13;;
28353;SDS011;15603;50.878;8.036;2023-07-24T07:00:09;6.43;;;2.13;;
28353;SDS011;15603;50.878;8.036;2023-07-24T07:02:38;4.18;;;2.88;;
28353;SDS011;15603;50.878;8.036;2023-07-24T07:05:06;8.30;;;2.85;;
28353;SDS011;15603;50.878;8.036;2023-07-24T07:07:33;11.90;;;2.53;;
28353;SDS011;15603;50.878;8.036;2023-07-24T07:10:00;6.40;;;2.97;;
28353;SDS011;15603;50.878;8.036;2023-07-24T07:12:27;12.40;;;2.58;;
28353;SDS011;15603;50.878;8.036;2023-07-24T07:14:55;4.75;;;2.80;;
28353;SDS011;15603;50.878;8.036;2023-07-24T07:17:22;6.30;;;3.38;;
28353;SDS011;15603;50.878;8.036;2023-07-24T07:20:01;10.30;;;2.80;;
28353;SDS011;15603;50.878;8.036;2023-07-24T07:22:34;5.72;;;3.05;;
28353;SDS011;15603;50.878;8.036;2023-07-24T07:33:31;6.40;;;3.25;;
28353;SDS011;15603;50.878;8.036;2023-07-24T08:10:25;5.22;;;2.55;;
28353;SDS011;15603;50.878;8.036;2023-07-24T08:13:22;8.70;;;2.55;;
28353;SDS011;15603;50.878;8.036;2023-07-24T08:16:59;5.90;;;2.45;;
28353;SDS011;15603;50.878;8.036;2023-07-24T08:48:56;4.07;;;2.00;;
28353;SDS011;15603;50.878;8.036;2023-07-24T09:07:48;3.88;;;2.25;;
28353;SDS011;15603;50.878;8.036;2023-07-24T09:15:03;3.67;;;2.42;;
28353;SDS011;15603;50.878;8.036;2023-07-24T09:17:55;4.13;;;2.55;;
28353;SDS011;15603;50.878;8.036;2023-07-24T09:20:37;4.32;;;2.45;;
28353;SDS011;15603;50.878;8.036;2023-07-24T09:28:41;5.82;;;2.53;;
28353;SDS011;15603;50.878;8.036;2023-07-24T09:36:00;3.72;;;2.15;;
28353;SDS011;15603;50.878;8.036;2023-07-24T09:46:26;4.43;;;2.03;;
28353;SDS011;15603;50.878;8.036;2023-07-24T09:51:48;2.55;;;1.58;;
28353;SDS011;15603;50.878;8.036;2023-07-24T09:54:55;5.25;;;2.30;;
28353;SDS011;15603;50.878;8.036;2023-07-24T09:57:40;2.03;;;1.55;;
28353;SDS011;15603;50.878;8.036;2023-07-24T10:00:14;5.57;;;2.00;;
28353;SDS011;15603;50.878;8.036;2023-07-24T10:11:13;2.83;;;1.60;;
28353;SDS011;15603;50.878;8.036;2023-07-24T10:26:49;2.97;;;1.52;;
28353;SDS011;15603;50.878;8.036;2023-07-24T10:29:43;4.90;;;1.60;;
28353;SDS011;15603;50.878;8.036;2023-07-24T10:33:13;3.60;;;2.10;;
28353;SDS011;15603;50.878;8.036;2023-07-24T10:35:54;4.20;;;1.52;;
28353;SDS011;15603;50.878;8.036;2023-07-24T10:38:51;3.25;;;1.35;;
28353;SDS011;15603;50.878;8.036;2023-07-24T10:41:36;3.33;;;1.30;;
28353;SDS011;15603;50.878;8.036;2023-07-24T10:44:18;2.42;;;1.63;;
28353;SDS011;15603;50.878;8.036;2023-07-24T11:38:38;4.47;;;2.10;;
28353;SDS011;15603;50.878;8.036;2023-07-24T11:41:18;4.18;;;1.90;;
28353;SDS011;15603;50.878;8.036;2023-07-24T11:43:53;2.72;;;1.65;;
28353;SDS011;15603;50.878;8.036;2023-07-24T12:08:46;3.35;;;1.85;;
28353;SDS011;15603;50.878;8.036;2023-07-24T12:11:26;2.78;;;1.60;;
28353;SDS011;15603;50.878;8.036;2023-07-24T12:25:03;3.15;;;1.30;;
28353;SDS011;15603;50.878;8.036;2023-07-24T12:27:31;8.50;;;2.00;;
28353;SDS011;15603;50.878;8.036;2023-07-24T12:29:58;3.33;;;1.67;;
28353;SDS011;15603;50.878;8.036;2023-07-24T12:32:26;2.53;;;1.70;;
28353;SDS011;15603;50.878;8.036;2023-07-24T12:34:53;3.58;;;1.83;;
28353;SDS011;15603;50.878;8.036;2023-07-24T12:37:20;5.75;;;2.50;;
28353;SDS011;15603;50.878;8.036;2023-07-24T12:39:48;7.70;;;2.53;;
28353;SDS011;15603;50.878;8.036;2023-07-24T12:42:15;3.03;;;1.80;;
28353;SDS011;15603;50.878;8.036;2023-07-24T12:44:42;2.75;;;1.63;;
28353;SDS011;15603;50.878;8.036;2023-07-24T12:47:11;3.25;;;1.80;;
28353;SDS011;15603;50.878;8.036;2023-07-24T12:49:38;4.40;;;1.85;;
28353;SDS011;15603;50.878;8.036;2023-07-24T12:52:06;3.85;;;1.40;;
28353;SDS011;15603;50.878;8.036;2023-07-24T12:54:34;2.55;;;1.42;;
28353;SDS011;15603;50.878;8.036;2023-07-24T12:57:21;3.05;;;1.77;;
28353;SDS011;15603;50.878;8.036;2023-07-24T12:59:48;3.92;;;2.05;;
28353;SDS011;15603;50.878;8.036;2023-07-24T13:02:15;4.50;;;2.60;;
28353;SDS011;15603;50.878;8.036;2023-07-24T13:04:43;7.00;;;3.85;;
28353;SDS011;15603;50.878;8.036;2023-07-24T13:07:10;17.40;;;3.85;;
28353;SDS011;15603;50.878;8.036;2023-07-24T13:09:37;2.50;;;1.27;;
28353;SDS011;15603;50.878;8.036;2023-07-24T13:12:04;3.13;;;1.63;;
28353;SDS011;15603;50.878;8.036;2023-07-24T13:14:31;3.38;;;1.73;;
28353;SDS011;15603;50.878;8.036;2023-07-24T13:16:58;4.40;;;2.10;;
28353;SDS011;15603;50.878;8.036;2023-07-24T13:19:26;4.07;;;1.95;;
28353;SDS011;15603;50.878;8.036;2023-07-24T13:21:53;4.50;;;1.67;;
28353;SDS011;15603;50.878;8.036;2023-07-24T13:24:20;2.25;;;1.35;;
28353;SDS011;15603;50.878;8.036;2023-07-24T13:26:47;3.40;;;1.52;;
28353;SDS011;15603;50.878;8.036;2023-07-24T13:29:14;3.88;;;2.00;;
28353;SDS011;15603;50.878;8.036;2023-07-24T13:31:41;3.67;;;1.35;;
28353;SDS011;15603;50.878;8.036;2023-07-24T13:34:09;3.50;;;1.70;;
28353;SDS011;15603;50.878;8.036;2023-07-24T13:36:36;0.93;;;0.75;;
28353;SDS011;15603;50.878;8.036;2023-07-24T13:39:03;1.63;;;0.90;;
28353;SDS011;15603;50.878;8.036;2023-07-24T13:41:30;2.08;;;0.93;;
28353;SDS011;15603;50.878;8.036;2023-07-24T13:43:59;0.63;;;0.43;;
28353;SDS011;15603;50.878;8.036;2023-07-24T13:46:26;0.75;;;0.63;;
28353;SDS011;15603;50.878;8.036;2023-07-24T13:48:54;3.00;;;0.50;;
28353;SDS011;15603;50.878;8.036;2023-07-24T13:51:22;0.47;;;0.40;;
28353;SDS011;15603;50.878;8.036;2023-07-24T13:53:49;0.75;;;0.57;;
28353;SDS011;15603;50.878;8.036;2023-07-24T13:56:18;1.50;;;0.68;;
28353;SDS011;15603;50.878;8.036;2023-07-24T13:58:45;1.27;;;0.60;;
28353;SDS011;15603;50.878;8.036;2023-07-24T14:01:12;2.13;;;0.60;;
28353;SDS011;15603;50.878;8.036;2023-07-24T14:03:39;1.27;;;0.57;;
28353;SDS011;15603;50.878;8.036;2023-07-24T14:06:07;1.33;;;0.43;;
28353;SDS011;15603;50.878;8.036;2023-07-24T14:08:34;2.28;;;0.43;;
28353;SDS011;15603;50.878;8.036;2023-07-24T14:11:01;1.65;;;0.38;;
28353;SDS011;15603;50.878;8.036;2023-07-24T14:13:29;1.85;;;0.60;;
28353;SDS011;15603;50.878;8.036;2023-07-24T14:15:56;1.92;;;0.90;;
28353;SDS011;15603;50.878;8.036;2023-07-24T14:18:23;1.70;;;0.77;;
28353;SDS011;15603;50.878;8.036;2023-07-24T14:20:50;3.72;;;1.17;;
28353;SDS011;15603;50.878;8.036;2023-07-24T14:23:21;1.33;;;0.50;;
28353;SDS011;15603;50.878;8.036;2023-07-24T14:25:48;5.25;;;0.95;;
28353;SDS011;15603;50.878;8.036;2023-07-24T14:28:15;1.77;;;0.60;;
28353;SDS011;15603;50.878;8.036;2023-07-24T14:30:42;2.92;;;0.98;;
28353;SDS011;15603;50.878;8.036;2023-07-24T14:33:09;1.42;;;0.70;;
28353;SDS011;15603;50.878;8.036;2023-07-24T14:35:36;3.20;;;0.93;;
28353;SDS011;15603;50.878;8.036;2023-07-24T14:38:04;5.78;;;0.68;;
28353;SDS011;15603;50.878;8.036;2023-07-24T14:40:31;1.60;;;0.52;;
28353;SDS011;15603;50.878;8.036;2023-07-24T14:42:58;1.75;;;0.50;;
28353;SDS011;15603;50.878;8.036;2023-07-24T14:45:25;0.50;;;0.50;;
28353;SDS011;15603;50.878;8.036;2023-07-24T14:47:53;1.92;;;0.80;;
28353;SDS011;15603;50.878;8.036;2023-07-24T14:50:20;0.43;;;0.40;;
28353;SDS011;15603;50.878;8.036;2023-07-24T14:52:47;0.82;;;0.50;;
28353;SDS011;15603;50.878;8.036;2023-07-24T14:55:14;3.40;;;0.57;;
28353;SDS011;15603;50.878;8.036;2023-07-24T14:57:42;0.63;;;0.50;;
28353;SDS011;15603;50.878;8.036;2023-07-24T15:00:09;2.30;;;0.43;;
28353;SDS011;15603;50.878;8.036;2023-07-24T15:02:36;2.45;;;0.52;;
28353;SDS011;15603;50.878;8.036;2023-07-24T15:05:03;2.03;;;0.75;;
28353;SDS011;15603;50.878;8.036;2023-07-24T15:07:31;0.95;;;0.47;;
28353;SDS011;15603;50.878;8.036;2023-07-24T15:09:58;1.42;;;0.70;;
28353;SDS011;15603;50.878;8.036;2023-07-24T15:12:25;1.02;;;0.63;;
28353;SDS011;15603;50.878;8.036;2023-07-24T15:19:05;3.05;;;0.95;;
28353;SDS011;15603;50.878;8.036;2023-07-24T15:21:52;2.45;;;0.85;;
28353;SDS011;15603;50.878;8.036;2023-07-24T15:24:19;1.63;;;0.70;;
28353;SDS011;15603;50.878;8.036;2023-07-24T15:26:46;1.42;;;0.85;;
28353;SDS011;15603;50.878;8.036;2023-07-24T15:29:14;7.75;;;1.10;;
28353;SDS011;15603;50.878;8.036;2023-07-24T15:31:46;1.48;;;1.00;;
28353;SDS011;15603;50.878;8.036;2023-07-24T15:34:13;1.17;;;0.80;;
28353;SDS011;15603;50.878;8.036;2023-07-24T15:36:40;1.33;;;0.90;;
28353;SDS011;15603;50.878;8.036;2023-07-24T15:39:07;1.48;;;0.82;;
28353;SDS011;15603;50.878;8.036;2023-07-24T15:41:34;1.30;;;0.75;;
28353;SDS011;15603;50.878;8.036;2023-07-24T15:44:01;1.13;;;0.70;;
28353;SDS011;15603;50.878;8.036;2023-07-24T15:46:28;2.22;;;0.95;;
28353;SDS011;15603;50.878;8.036;2023-07-24T15:48:59;1.63;;;0.60;;
28353;SDS011;15603;50.878;8.036;2023-07-24T15:51:27;2.97;;;0.65;;
28353;SDS011;15603;50.878;8.036;2023-07-24T15:53:55;0.75;;;0.60;;
28353;SDS011;15603;50.878;8.036;2023-07-24T15:56:22;0.73;;;0.60;;
28353;SDS011;15603;50.878;8.036;2023-07-24T15:58:49;1.25;;;0.60;;
28353;SDS011;15603;50.878;8.036;2023-07-24T16:01:17;2.38;;;1.40;;
28353;SDS011;15603;50.878;8.036;2023-07-24T16:03:47;1.27;;;0.77;;
28353;SDS011;15603;50.878;8.036;2023-07-24T16:06:15;1.70;;;0.80;;
28353;SDS011;15603;50.878;8.036;2023-07-24T16:08:42;2.25;;;1.02;;
28353;SDS011;15603;50.878;8.036;2023-07-24T16:11:10;2.40;;;0.95;;
28353;SDS011;15603;50.878;8.036;2023-07-24T16:13:40;2.47;;;1.15;;
28353;SDS011;15603;50.878;8.036;2023-07-24T16:16:09;1.70;;;0.88;;
28353;SDS011;15603;50.878;8.036;2023-07-24T16:18:36;1.67;;;0.85;;
28353;SDS011;15603;50.878;8.036;2023-07-24T16:21:04;0.57;;;0.47;;
28353;SDS011;15603;50.878;8.036;2023-07-24T16:23:31;3.30;;;1.48;;
28353;SDS011;15603;50.878;8.036;2023-07-24T16:25:58;1.23;;;0.90;;
28353;SDS011;15603;50.878;8.036;2023-07-24T16:28:25;1.38;;;0.60;;
28353;SDS011;15603;50.878;8.036;2023-07-24T16:30:52;0.80;;;0.57;;
28353;SDS011;15603;50.878;8.036;2023-07-24T16:33:23;1.48;;;0.68;;
28353;SDS011;15603;50.878;8.036;2023-07-24T16:35:51;0.95;;;0.70;;
28353;SDS011;15603;50.878;8.036;2023-07-24T16:38:18;2.28;;;0.52;;
28353;SDS011;15603;50.878;8.036;2023-07-24T16:40:46;3.15;;;0.70;;
28353;SDS011;15603;50.878;8.036;2023-07-24T16:43:13;0.63;;;0.63;;
28353;SDS011;15603;50.878;8.036;2023-07-24T16:45:40;1.40;;;0.85;;
28353;SDS011;15603;50.878;8.036;2023-07-24T16:48:07;2.08;;;0.90;;
28353;SDS011;15603;50.878;8.036;2023-07-24T16:50:34;1.20;;;0.50;;
28353;SDS011;15603;50.878;8.036;2023-07-24T16:53:03;1.13;;;0.80;;
28353;SDS011;15603;50.878;8.036;2023-07-24T16:55:30;1.02;;;0.80;;
28353;SDS011;15603;50.878;8.036;2023-07-24T16:57:57;2.67;;;0.68;;
28353;SDS011;15603;50.878;8.036;2023-07-24T17:00:24;1.58;;;0.60;;
28353;SDS011;15603;50.878;8.036;2023-07-24T17:02:51;1.25;;;0.77;;
28353;SDS011;15603;50.878;8.036;2023-07-24T17:05:19;1.52;;;0.55;;
28353;SDS011;15603;50.878;8.036;2023-07-24T17:07:46;1.63;;;0.93;;
28353;SDS011;15603;50.878;8.036;2023-07-24T17:10:13;1.65;;;0.55;;
28353;SDS011;15603;50.878;8.036;2023-07-24T17:12:41;1.83;;;0.73;;
28353;SDS011;15603;50.878;8.036;2023-07-24T17:15:09;7.47;;;0.63;;
28353;SDS011;15603;50.878;8.036;2023-07-24T17:17:36;1.05;;;0.77;;
28353;SDS011;15603;50.878;8.036;2023-07-24T17:20:04;1.15;;;0.73;;
28353;SDS011;15603;50.878;8.036;2023-07-24T17:22:31;0.75;;;0.40;;
28353;SDS011;15603;50.878;8.036;2023-07-24T17:24:59;0.95;;;0.60;;
28353;SDS011;15603;50.878;8.036;2023-07-24T17:27:26;0.93;;;0.70;;
28353;SDS011;15603;50.878;8.036;2023-07-24T17:29:55;1.92;;;1.30;;
28353;SDS011;15603;50.878;8.036;2023-07-24T17:32:23;0.73;;;0.63;;
28353;SDS011;15603;50.878;8.036;2023-07-24T17:34:51;1.00;;;0.50;;
28353;SDS011;15603;50.878;8.036;2023-07-24T17:37:18;2.17;;;0.85;;
28353;SDS011;15603;50.878;8.036;2023-07-24T17:40:03;1.77;;;1.02;;
28353;SDS011;15603;50.878;8.036;2023-07-24T17:42:32;2.25;;;1.15;;
28353;SDS011;15603;50.878;8.036;2023-07-24T17:44:59;0.75;;;0.65;;
28353;SDS011;15603;50.878;8.036;2023-07-24T17:47:26;1.08;;;0.80;;
28353;SDS011;15603;50.878;8.036;2023-07-24T17:49:56;2.83;;;0.95;;
28353;SDS011;15603;50.878;8.036;2023-07-24T17:52:33;1.65;;;0.77;;
28353;SDS011;15603;50.878;8.036;2023-07-24T17:55:01;1.92;;;0.88;;
28353;SDS011;15603;50.878;8.036;2023-07-24T17:57:29;4.07;;;0.88;;
28353;SDS011;15603;50.878;8.036;2023-07-24T17:59:56;0.77;;;0.52;;
28353;SDS011;15603;50.878;8.036;2023-07-24T18:02:26;1.25;;;0.63;;
28353;SDS011;15603;50.878;8.036;2023-07-24T18:04:53;1.25;;;0.63;;
28353;SDS011;15603;50.878;8.036;2023-07-24T18:07:20;2.13;;;0.73;;
28353;SDS011;15603;50.878;8.036;2023-07-24T18:09:47;1.40;;;0.60;;
28353;SDS011;15603;50.878;8.036;2023-07-24T18:12:14;3.42;;;0.93;;
28353;SDS011;15603;50.878;8.036;2023-07-24T18:14:42;7.57;;;2.08;;
28353;SDS011;15603;50.878;8.036;2023-07-24T18:17:09;2.45;;;1.10;;
28353;SDS011;15603;50.878;8.036;2023-07-24T18:19:36;1.17;;;0.75;;
28353;SDS011;15603;50.878;8.036;2023-07-24T18:22:03;2.17;;;1.02;;
28353;SDS011;15603;50.878;8.036;2023-07-24T18:24:30;2.20;;;0.73;;
28353;SDS011;15603;50.878;8.036;2023-07-24T18:26:57;1.48;;;0.82;;
28353;SDS011;15603;50.878;8.036;2023-07-24T18:29:24;0.77;;;0.75;;
28353;SDS011;15603;50.878;8.036;2023-07-24T18:31:51;2.55;;;0.80;;
28353;SDS011;15603;50.878;8.036;2023-07-24T18:34:20;3.80;;;1.00;;
28353;SDS011;15603;50.878;8.036;2023-07-24T18:36:47;0.95;;;0.70;;
28353;SDS011;15603;50.878;8.036;2023-07-24T18:39:14;4.38;;;1.23;;
28353;SDS011;15603;50.878;8.036;2023-07-24T18:41:41;6.03;;;1.20;;
28353;SDS011;15603;50.878;8.036;2023-07-24T18:44:13;4.65;;;1.55;;
28353;SDS011;15603;50.878;8.036;2023-07-24T18:46:41;3.10;;;1.38;;